Time;durP1;ratioP1;P1;durP2;ratioP2;P2;SDS_P1;SDS_P2;PMS_P1;PMS_P2;Temp;Humidity;BMP_temperature;BMP_pressure;BME280_temperature;BME280_humidity;BME280_pressure;Samples;Min_cycle;Max_cycle;Signal;HPM_P1;HPM_P2
2021/06/25 00:01:19;;;;;;;2.30;2.10;;;;;;;13.75;73.35;101532.88;5016210;28;20030;-74
2021/06/25 00:03:44;;;;;;;2.22;2.03;;;;;;;13.59;73.96;101522.59;4998206;28;20378;-74
2021/06/25 00:06:09;;;;;;;2.28;2.00;;;;;;;13.46;74.14;101521.09;5015201;28;20104;-74
2021/06/25 00:08:35;;;;;;;2.88;2.50;;;;;;;13.41;75.23;101520.28;5015866;28;20489;-74
2021/06/25 00:11:00;;;;;;;2.80;2.60;;;;;;;13.51;73.87;101516.63;4998499;28;20030;-74
2021/06/25 00:13:26;;;;;;;2.88;2.67;;;;;;;13.50;73.64;101514.91;4997933;28;20072;-74
2021/06/25 00:15:53;;;;;;;4.40;2.97;;;;;;;13.44;74.64;101514.97;5014902;28;20100;-74
2021/06/25 00:18:19;;;;;;;5.47;2.72;;;;;;;13.33;74.97;101516.00;5016138;28;20029;-74
2021/06/25 00:20:44;;;;;;;2.95;2.65;;;;;;;13.33;75.91;101510.75;4998165;28;20029;-74
2021/06/25 00:23:09;;;;;;;3.72;2.55;;;;;;;13.44;74.51;101515.88;5014719;28;20285;-74
2021/06/25 00:25:35;;;;;;;2.92;2.65;;;;;;;13.31;74.90;101514.28;5014739;28;20116;-74
2021/06/25 00:28:00;;;;;;;4.60;2.95;;;;;;;13.22;75.91;101515.25;5031348;28;20410;-74
2021/06/25 00:30:25;;;;;;;2.95;2.70;;;;;;;13.31;74.75;101509.03;4997984;28;20514;-74
2021/06/25 00:32:51;;;;;;;3.55;2.78;;;;;;;13.23;75.44;101519.63;4998082;28;20018;-74
2021/06/25 00:35:16;;;;;;;4.20;3.13;;;;;;;13.26;75.77;101511.69;5014416;28;20100;-75
2021/06/25 00:37:43;;;;;;;5.35;3.58;;;;;;;13.32;75.96;101522.13;5014768;28;20087;-74
2021/06/25 00:40:09;;;;;;;3.75;3.28;;;;;;;13.28;75.19;101520.44;5014479;28;20032;-74
2021/06/25 00:42:34;;;;;;;3.40;2.85;;;;;;;13.20;76.30;101524.94;5015105;28;20032;-74
2021/06/25 00:45:10;;;;;;;3.08;2.80;;;;;;;13.16;76.10;101525.84;4997895;28;20022;-73
2021/06/25 00:47:36;;;;;;;3.63;3.05;;;;;;;13.23;76.48;101527.50;5014469;28;20308;-74
2021/06/25 00:50:02;;;;;;;3.15;2.85;;;;;;;13.20;76.58;101530.16;5015053;28;20032;-74
2021/06/25 00:52:28;;;;;;;2.92;2.53;;;;;;;13.19;76.26;101526.66;5030612;28;20525;-74
2021/06/25 00:54:53;;;;;;;3.08;2.78;;;;;;;13.13;76.17;101529.38;5014004;28;20057;-74
2021/06/25 00:57:21;;;;;;;3.53;3.17;;;;;;;13.20;76.27;101522.31;4997890;28;20113;-74
2021/06/25 00:59:46;;;;;;;3.13;2.63;;;;;;;13.11;77.05;101532.91;5014265;28;20096;-74
2021/06/25 01:02:11;;;;;;;3.15;2.95;;;;;;;13.02;76.01;101534.78;5012765;28;20520;-74
2021/06/25 01:04:37;;;;;;;4.30;2.60;;;;;;;12.92;76.40;101535.75;5014738;28;20486;-74
2021/06/25 01:07:04;;;;;;;3.58;3.28;;;;;;;12.97;78.00;101533.97;4997317;28;20065;-74
2021/06/25 01:09:30;;;;;;;4.78;3.53;;;;;;;12.80;77.39;101523.69;4997388;28;20040;-74
2021/06/25 01:11:56;;;;;;;3.40;3.10;;;;;;;12.85;78.23;101527.09;5013188;28;20033;-76
2021/06/25 01:14:21;;;;;;;4.05;3.50;;;;;;;12.80;77.25;101528.06;5012185;28;20057;-75
2021/06/25 01:16:46;;;;;;;3.40;3.20;;;;;;;12.77;77.02;101533.34;5012849;28;20030;-75
2021/06/25 01:19:13;;;;;;;4.38;3.33;;;;;;;12.81;77.54;101538.50;5012948;28;20327;-74
2021/06/25 01:21:40;;;;;;;3.95;3.00;;;;;;;12.88;76.88;101533.22;5013389;28;20030;-74
2021/06/25 01:24:06;;;;;;;3.22;2.95;;;;;;;12.72;77.50;101545.63;4996789;28;20068;-74
2021/06/25 01:26:31;;;;;;;3.60;3.30;;;;;;;12.73;77.36;101536.88;5013461;28;20026;-75
2021/06/25 01:28:57;;;;;;;4.13;3.67;;;;;;;12.62;77.85;101535.25;4997264;28;20036;-75
2021/06/25 01:31:22;;;;;;;4.22;2.83;;;;;;;12.57;77.85;101542.31;5013563;28;20034;-75
2021/06/25 01:33:48;;;;;;;4.10;3.20;;;;;;;12.57;77.91;101530.94;5012606;28;20029;-74
2021/06/25 01:36:13;;;;;;;3.70;3.25;;;;;;;12.57;77.77;101530.94;5012384;28;20022;-75
2021/06/25 01:38:41;;;;;;;3.13;2.88;;;;;;;12.52;77.66;101528.38;5012571;28;20029;-75
2021/06/25 01:41:06;;;;;;;4.57;2.92;;;;;;;12.57;78.03;101520.47;5029399;28;20037;-75
2021/06/25 01:43:32;;;;;;;3.17;2.92;;;;;;;12.72;77.99;101519.41;4995561;28;20021;-75
2021/06/25 01:45:58;;;;;;;3.58;3.00;;;;;;;12.80;77.48;101518.44;4996898;28;20044;-75
2021/06/25 01:48:23;;;;;;;6.47;3.65;;;;;;;12.79;76.92;101511.47;4996804;28;20112;-75
2021/06/25 01:50:49;;;;;;;5.03;3.38;;;;;;;12.61;78.16;101517.81;5013050;28;20026;-75
2021/06/25 01:53:16;;;;;;;4.47;3.80;;;;;;;12.65;78.10;101524.75;5012182;28;20109;-75
2021/06/25 01:55:42;;;;;;;4.05;3.65;;;;;;;12.64;77.90;101530.88;5012720;28;20026;-75
2021/06/25 01:58:14;;;;;;;3.53;3.25;;;;;;;12.73;77.17;101526.41;5013035;28;20037;-74
2021/06/25 02:01:09;;;;;;;3.30;3.03;;;;;;;12.70;77.59;101532.53;5013962;28;20029;-75
2021/06/25 02:03:34;;;;;;;4.82;3.45;;;;;;;12.59;77.67;101534.44;5013666;28;20032;-74
2021/06/25 02:06:00;;;;;;;4.60;3.45;;;;;;;12.42;78.24;101522.38;4996842;28;20424;-74
2021/06/25 02:08:25;;;;;;;4.55;3.63;;;;;;;12.40;78.09;101525.91;5012508;28;20046;-74
2021/06/25 02:10:51;;;;;;;5.25;3.50;;;;;;;12.46;77.46;101523.19;5012918;28;20416;-74
2021/06/25 02:13:16;;;;;;;4.57;2.95;;;;;;;12.54;77.51;101523.13;4995815;28;20041;-75
2021/06/25 02:15:42;;;;;;;3.78;3.35;;;;;;;12.53;78.03;101524.88;5013118;28;20030;-75
2021/06/25 02:18:07;;;;;;;5.10;3.67;;;;;;;12.39;78.08;101526.78;4996402;28;20021;-75
2021/06/25 02:20:32;;;;;;;4.43;4.03;;;;;;;12.31;78.04;101522.50;5013949;28;20072;-74
2021/06/25 02:22:58;;;;;;;5.07;4.30;;;;;;;12.32;79.07;101519.00;4995852;28;20121;-75
2021/06/25 02:25:23;;;;;;;4.57;3.90;;;;;;;12.28;79.61;101509.41;5012945;28;20446;-75
2021/06/25 02:27:48;;;;;;;4.72;4.00;;;;;;;12.32;78.87;101502.38;5012570;28;20030;-74
2021/06/25 02:30:17;;;;;;;5.88;3.85;;;;;;;12.14;78.23;101503.44;5012826;28;20026;-74
2021/06/25 02:32:45;;;;;;;4.18;3.58;;;;;;;12.20;78.83;101506.00;5012415;28;20435;-74
2021/06/25 02:35:10;;;;;;;3.85;3.42;;;;;;;12.13;79.46;101506.94;5013114;28;20026;-74
2021/06/25 02:37:36;;;;;;;4.90;3.78;;;;;;;11.97;78.86;101504.47;5012690;28;20416;-74
2021/06/25 02:40:01;;;;;;;3.88;3.30;;;;;;;11.99;79.41;101499.22;4996253;28;20072;-74
2021/06/25 02:42:26;;;;;;;5.68;3.80;;;;;;;12.05;79.78;101512.25;5012231;28;20415;-74
2021/06/25 02:44:52;;;;;;;3.65;3.35;;;;;;;12.09;79.42;101521.84;5012578;28;20454;-74
2021/06/25 02:47:17;;;;;;;4.30;3.47;;;;;;;11.92;79.86;101514.09;4996144;28;20105;-74
2021/06/25 02:49:42;;;;;;;4.10;3.80;;;;;;;11.98;80.38;101507.97;4995993;28;20029;-74
2021/06/25 02:52:08;;;;;;;4.10;3.70;;;;;;;12.02;79.94;101506.19;5012282;28;20412;-74
2021/06/25 02:54:35;;;;;;;4.28;3.60;;;;;;;12.09;79.40;101495.66;5012197;28;20033;-74
2021/06/25 02:57:01;;;;;;;3.75;3.45;;;;;;;12.12;79.05;101500.84;5013500;28;20419;-74
2021/06/25 02:59:26;;;;;;;4.88;3.97;;;;;;;11.94;79.73;101496.66;5012703;28;20073;-74
2021/06/25 03:01:51;;;;;;;4.45;4.05;;;;;;;11.72;80.33;101492.44;5012161;28;20033;-74
2021/06/25 03:04:16;;;;;;;4.25;3.85;;;;;;;11.86;80.24;101480.09;5012127;28;20072;-74
2021/06/25 03:06:43;;;;;;;4.70;3.95;;;;;;;11.83;80.58;101467.03;5012700;28;20034;-74
2021/06/25 03:09:08;;;;;;;7.07;4.50;;;;;;;11.99;78.82;101470.44;5013393;28;20022;-74
2021/06/25 03:11:34;;;;;;;4.72;4.00;;;;;;;12.01;78.89;101458.16;5012396;28;20573;-75
2021/06/25 03:13:59;;;;;;;4.18;3.78;;;;;;;11.88;80.28;101462.63;5011333;28;20059;-74
2021/06/25 03:16:24;;;;;;;5.18;4.45;;;;;;;11.86;79.96;101471.38;4996391;28;20103;-74
2021/06/25 03:18:50;;;;;;;5.10;4.60;;;;;;;12.11;78.87;101474.69;4995984;28;20367;-74
2021/06/25 03:21:17;;;;;;;5.07;4.68;;;;;;;11.94;79.53;101467.88;4996208;28;20419;-74
2021/06/25 03:23:42;;;;;;;5.07;4.57;;;;;;;11.92;79.69;101464.34;4995604;28;20026;-75
2021/06/25 03:26:08;;;;;;;6.00;5.20;;;;;;;11.88;79.99;101467.88;5014489;28;20053;-74
2021/06/25 03:28:33;;;;;;;6.18;4.90;;;;;;;11.91;79.13;101467.84;5016038;28;20045;-74
2021/06/25 03:30:58;;;;;;;5.30;4.80;;;;;;;11.96;79.33;101465.22;5015512;28;20411;-74
2021/06/25 03:33:24;;;;;;;7.80;4.57;;;;;;;11.94;79.07;101462.63;5015469;28;20033;-75
2021/06/25 03:35:49;;;;;;;7.03;5.22;;;;;;;11.89;78.86;101461.75;4999140;28;20064;-75
2021/06/25 03:38:14;;;;;;;6.32;5.18;;;;;;;11.63;79.95;101462.84;4999190;28;20018;-75
2021/06/25 03:40:40;;;;;;;5.72;5.10;;;;;;;11.65;79.77;101468.94;5015444;28;20072;-75
2021/06/25 03:43:05;;;;;;;5.15;4.53;;;;;;;11.88;78.98;101462.63;5015449;28;20030;-75
2021/06/25 03:45:31;;;;;;;6.60;4.30;;;;;;;12.12;78.46;101461.56;4998896;28;20464;-76
2021/06/25 03:47:56;;;;;;;5.93;5.35;;;;;;;12.00;79.52;101470.41;5015459;28;20391;-76
2021/06/25 03:50:21;;;;;;;6.90;4.90;;;;;;;11.83;78.38;101465.31;5016307;28;20018;-76
2021/06/25 03:52:46;;;;;;;4.93;4.53;;;;;;;12.06;77.77;101471.22;5016234;28;20088;-76
2021/06/25 03:55:12;;;;;;;5.22;4.72;;;;;;;11.95;77.67;101466.09;5015197;28;20034;-76
2021/06/25 03:57:39;;;;;;;6.43;5.03;;;;;;;12.24;76.67;101467.56;5015261;28;20036;-76
2021/06/25 04:00:07;;;;;;;5.60;5.10;;;;;;;12.42;76.66;101471.72;5014939;28;20080;-75
2021/06/25 04:02:32;;;;;;;4.75;4.35;;;;;;;12.30;77.90;101468.34;4998470;28;20033;-76
2021/06/25 04:04:57;;;;;;;6.32;4.75;;;;;;;12.10;78.41;101478.19;5015134;28;20105;-76
2021/06/25 04:07:26;;;;;;;4.82;4.32;;;;;;;12.26;77.96;101476.28;4998577;28;20028;-74
2021/06/25 04:09:51;;;;;;;8.10;4.90;;;;;;;12.30;77.32;101468.34;5014601;28;20072;-75
2021/06/25 04:12:17;;;;;;;5.63;5.13;;;;;;;12.48;76.41;101472.50;5014634;28;20112;-75
2021/06/25 04:14:42;;;;;;;7.32;5.20;;;;;;;12.34;77.03;101477.91;5015669;28;20113;-75
2021/06/25 04:17:07;;;;;;;6.22;5.25;;;;;;;12.49;76.30;101481.25;5014819;28;20061;-75
2021/06/25 04:19:33;;;;;;;6.20;5.65;;;;;;;12.48;76.67;101479.50;5014681;28;20029;-75
2021/06/25 04:21:58;;;;;;;5.68;5.18;;;;;;;12.23;78.48;101485.03;5014364;28;20026;-76
2021/06/25 04:24:23;;;;;;;5.90;5.40;;;;;;;12.35;77.20;101473.53;4998115;28;20032;-75
2021/06/25 04:26:49;;;;;;;5.95;5.40;;;;;;;12.38;77.48;101477.88;4997935;28;20025;-75
2021/06/25 04:29:15;;;;;;;6.63;5.97;;;;;;;12.43;76.83;101478.69;4998424;28;20026;-76
2021/06/25 04:31:42;;;;;;;6.57;5.80;;;;;;;12.50;76.91;101483.84;4998153;28;20109;-76
2021/06/25 04:34:10;;;;;;;6.75;6.15;;;;;;;12.28;78.25;101477.97;5014255;28;20397;-76
2021/06/25 04:36:36;;;;;;;6.53;5.93;;;;;;;12.41;78.04;101470.00;5014060;28;20100;-76
2021/06/25 04:39:04;;;;;;;7.65;6.50;;;;;;;12.19;78.96;101467.63;4998026;28;20148;-75
2021/06/25 04:41:32;;;;;;;7.18;6.55;;;;;;;12.07;78.96;101463.34;5014020;28;20044;-75
2021/06/25 04:43:57;;;;;;;7.70;6.90;;;;;;;12.27;78.09;101457.91;4997369;28;20064;-75
2021/06/25 04:46:23;;;;;;;9.77;6.70;;;;;;;12.51;79.20;101453.25;5014082;28;20057;-75
2021/06/25 04:48:48;;;;;;;8.05;6.60;;;;;;;12.63;77.16;101447.00;5014310;28;20037;-75
2021/06/25 04:51:13;;;;;;;7.28;6.53;;;;;;;12.70;77.73;101442.56;4997133;28;20033;-75
2021/06/25 04:53:41;;;;;;;9.02;6.47;;;;;;;13.04;75.45;101434.22;5013787;28;20030;-75
2021/06/25 04:56:06;;;;;;;9.48;7.00;;;;;;;13.09;75.49;101432.38;5015103;28;20029;-76
2021/06/25 04:58:32;;;;;;;7.25;6.50;;;;;;;12.87;76.02;101427.47;5014213;28;20431;-76
2021/06/25 05:00:59;;;;;;;7.93;6.65;;;;;;;12.73;77.22;101434.66;4996669;28;20061;-76
2021/06/25 05:03:25;;;;;;;8.20;6.30;;;;;;;12.68;76.24;101440.81;5013844;28;20033;-75
2021/06/25 05:05:50;;;;;;;7.13;6.43;;;;;;;12.89;76.01;101435.31;5013573;28;20022;-75
2021/06/25 05:08:15;;;;;;;5.78;5.25;;;;;;;13.07;75.67;101426.31;5013838;28;20040;-75
2021/06/25 05:10:41;;;;;;;6.38;5.78;;;;;;;12.96;75.62;101429.94;4997368;28;20018;-75
2021/06/25 05:13:07;;;;;;;5.20;4.80;;;;;;;13.25;74.81;101436.53;4996820;28;20037;-75
2021/06/25 05:15:32;;;;;;;11.25;6.32;;;;;;;13.37;75.48;101434.63;5013696;28;20033;-75
2021/06/25 05:17:57;;;;;;;6.07;5.47;;;;;;;13.34;74.14;101441.59;4997469;28;20041;-76
2021/06/25 05:20:24;;;;;;;10.43;5.18;;;;;;;13.47;74.95;101438.81;4997518;28;20478;-76
2021/06/25 05:22:49;;;;;;;5.57;4.38;;;;;;;13.47;73.72;101444.06;5013476;28;20026;-75
2021/06/25 05:25:15;;;;;;;6.85;5.13;;;;;;;13.59;72.54;101441.25;4997575;28;20084;-75
2021/06/25 05:27:41;;;;;;;5.65;4.72;;;;;;;13.40;73.74;101434.56;4997700;28;20438;-76
2021/06/25 05:30:07;;;;;;;8.27;5.07;;;;;;;13.38;74.30;101439.00;5013655;28;20022;-75
2021/06/25 05:32:33;;;;;;;5.13;4.38;;;;;;;13.61;72.70;101449.97;4997083;28;20462;-75
2021/06/25 05:34:59;;;;;;;5.15;4.68;;;;;;;13.69;73.14;101455.94;4997207;28;20105;-75
2021/06/25 05:37:24;;;;;;;5.97;4.50;;;;;;;13.64;73.85;101460.41;4997484;28;20114;-75
2021/06/25 05:39:50;;;;;;;5.45;5.00;;;;;;;13.88;72.74;101463.53;5013968;28;20034;-76
2021/06/25 05:42:15;;;;;;;5.53;4.90;;;;;;;14.62;68.49;101462.09;5013054;28;20125;-77
2021/06/25 05:44:40;;;;;;;5.63;5.00;;;;;;;15.37;66.47;101456.06;5013186;28;20038;-76
2021/06/25 05:47:06;;;;;;;4.50;4.13;;;;;;;15.38;65.29;101458.66;5013035;28;20450;-76
2021/06/25 05:49:31;;;;;;;4.60;4.22;;;;;;;15.65;64.67;101458.91;4996261;28;20494;-76
2021/06/25 05:51:57;;;;;;;4.30;3.92;;;;;;;16.16;62.57;101457.59;5013290;28;20030;-77
2021/06/25 05:54:22;;;;;;;4.28;3.97;;;;;;;16.88;60.42;101459.06;5012938;28;20100;-75
2021/06/25 05:56:47;;;;;;;7.05;4.45;;;;;;;16.00;64.01;101457.13;5014767;28;20038;-76
2021/06/25 05:59:13;;;;;;;4.38;4.07;;;;;;;16.70;61.98;101461.34;4995698;28;20057;-76
2021/06/25 06:01:38;;;;;;;6.38;3.60;;;;;;;16.97;60.94;101461.44;5012920;28;20052;-75
2021/06/25 06:04:03;;;;;;;5.00;3.90;;;;;;;17.36;59.11;101471.66;4996493;28;20025;-76
2021/06/25 06:06:29;;;;;;;4.60;4.22;;;;;;;17.25;59.23;101463.22;4996960;28;20118;-76
2021/06/25 06:08:54;;;;;;;4.10;3.83;;;;;;;16.72;60.77;101462.13;4997053;28;20304;-76
2021/06/25 06:11:20;;;;;;;4.95;3.72;;;;;;;18.31;55.97;101464.06;5014305;28;20037;-76
2021/06/25 06:13:45;;;;;;;3.75;3.45;;;;;;;18.24;56.20;101471.34;5012903;28;20427;-76
2021/06/25 06:16:10;;;;;;;5.18;3.65;;;;;;;19.73;51.36;101474.41;4997107;28;20040;-76
2021/06/25 06:18:43;;;;;;;3.80;3.03;;;;;;;21.72;45.73;101469.72;5013124;28;20032;-76
2021/06/25 06:21:09;;;;;;;3.30;3.10;;;;;;;20.35;49.21;101470.91;4997819;28;20048;-76
2021/06/25 06:31:53;;;;;;;6.30;3.00;;;;;;;24.54;38.12;101457.41;5012972;28;20037;-76
2021/06/25 06:34:21;;;;;;;2.20;2.00;;;;;;;24.02;39.63;101472.16;5011937;28;20030;-76
2021/06/25 06:36:46;;;;;;;2.15;1.95;;;;;;;24.81;37.12;101464.63;4995461;28;20032;-76
2021/06/25 06:39:13;;;;;;;1.70;1.60;;;;;;;24.28;38.52;101464.38;5012359;28;20030;-76
2021/06/25 06:41:41;;;;;;;2.40;2.22;;;;;;;21.21;45.41;101477.50;5011991;28;20469;-76
2021/06/25 06:44:07;;;;;;;2.55;1.95;;;;;;;22.27;42.88;101475.78;4995873;28;20041;-76
2021/06/25 06:46:33;;;;;;;3.28;2.40;;;;;;;19.23;50.05;101480.84;5011849;28;20026;-76
2021/06/25 06:48:59;;;;;;;2.30;2.10;;;;;;;22.44;41.59;101478.44;5012953;28;20026;-75
2021/06/25 06:51:24;;;;;;;2.35;1.58;;;;;;;24.19;37.27;101470.28;5013253;28;20104;-76
2021/06/25 06:53:51;;;;;;;2.75;1.75;;;;;;;21.48;43.39;101473.59;4994075;28;20024;-75
2021/06/25 06:56:18;;;;;;;2.33;2.13;;;;;;;18.26;52.27;101484.50;4995501;28;20316;-75
2021/06/25 06:58:45;;;;;;;2.50;2.33;;;;;;;18.25;52.64;101480.13;5017163;28;20026;-75
2021/06/25 07:01:11;;;;;;;1.95;1.85;;;;;;;19.68;47.85;101481.69;5014770;28;20152;-75
2021/06/25 07:03:36;;;;;;;1.60;1.50;;;;;;;22.15;42.47;101473.75;5014964;28;20113;-75
2021/06/25 07:06:01;;;;;;;1.55;1.45;;;;;;;21.17;45.03;101469.78;4998261;28;20072;-75
2021/06/25 07:08:27;;;;;;;2.22;1.13;;;;;;;21.57;43.21;101473.16;4999274;28;20105;-75
2021/06/25 07:10:52;;;;;;;1.63;1.10;;;;;;;22.20;42.68;101467.25;4999386;28;20022;-75
2021/06/25 07:13:18;;;;;;;2.33;1.50;;;;;;;21.17;45.61;101467.97;5014907;28;20333;-76
2021/06/25 07:15:43;;;;;;;2.00;1.20;;;;;;;22.60;40.26;101464.28;5015175;28;20064;-76
2021/06/25 07:18:09;;;;;;;0.80;0.80;;;;;;;20.15;46.96;101472.66;5016073;28;20041;-76
2021/06/25 07:20:34;;;;;;;1.63;1.10;;;;;;;18.89;50.45;101481.34;5014911;28;20033;-75
2021/06/25 07:23:00;;;;;;;1.45;1.00;;;;;;;18.65;50.94;101483.97;5014526;28;20080;-75
2021/06/25 07:25:25;;;;;;;1.23;1.10;;;;;;;19.31;48.38;101477.06;4995568;28;20343;-75
2021/06/25 07:27:51;;;;;;;2.00;1.10;;;;;;;19.83;48.71;101469.59;4990863;28;20097;-75
2021/06/25 07:30:16;;;;;;;2.65;1.38;;;;;;;18.86;50.52;101474.34;4999655;28;20083;-75
2021/06/25 07:32:41;;;;;;;2.35;1.40;;;;;;;19.23;51.09;101474.72;5014479;28;20044;-75
2021/06/25 07:35:08;;;;;;;2.58;1.50;;;;;;;20.08;47.93;101469.41;5015593;28;20420;-75
2021/06/25 07:37:33;;;;;;;1.70;1.60;;;;;;;20.65;45.81;101473.94;5014951;28;20026;-75
2021/06/25 07:39:58;;;;;;;1.50;1.40;;;;;;;20.80;45.75;101474.19;4998445;28;20029;-77
2021/06/25 07:42:25;;;;;;;1.70;1.60;;;;;;;20.72;45.53;101475.44;4997572;28;20028;-76
2021/06/25 07:44:51;;;;;;;2.50;2.35;;;;;;;18.49;51.67;101461.66;5014342;28;20068;-76
2021/06/25 07:47:17;;;;;;;2.42;2.00;;;;;;;18.16;52.87;101469.88;5013387;28;20030;-75
2021/06/25 07:49:43;;;;;;;3.13;2.58;;;;;;;18.35;51.46;101459.50;5013625;28;20032;-76
2021/06/25 07:52:08;;;;;;;2.08;1.98;;;;;;;18.08;52.54;101463.09;5015282;28;20085;-75
2021/06/25 07:54:33;;;;;;;5.97;2.08;;;;;;;17.61;53.90;101468.19;5015373;28;20026;-74
2021/06/25 07:56:59;;;;;;;2.10;1.92;;;;;;;17.40;55.36;101477.69;5015094;28;20100;-74
2021/06/25 07:59:24;;;;;;;2.22;2.08;;;;;;;18.48;52.62;101470.50;5015790;28;20025;-74
2021/06/25 08:01:49;;;;;;;2.50;2.00;;;;;;;19.45;49.73;101463.25;5014550;28;20021;-77
2021/06/25 08:04:15;;;;;;;1.88;1.77;;;;;;;21.57;45.12;101462.53;5009549;28;20423;-75
2021/06/25 08:06:40;;;;;;;2.80;1.80;;;;;;;23.59;39.80;101464.91;4996074;28;20037;-80
2021/06/25 08:09:07;;;;;;;2.10;1.85;;;;;;;24.91;36.37;101443.50;4980873;28;20419;-79
2021/06/25 08:11:32;;;;;;;2.28;2.15;;;;;;;24.14;37.54;101455.41;4993811;28;20129;-79
2021/06/25 08:13:58;;;;;;;2.65;1.67;;;;;;;21.97;43.13;101444.53;5019924;28;20033;-79
2021/06/25 08:16:23;;;;;;;2.08;1.98;;;;;;;25.95;33.91;101441.00;5017616;28;20018;-80
2021/06/25 08:18:56;;;;;;;2.20;2.08;;;;;;;23.43;38.09;101451.59;5016440;28;20112;-79
2021/06/25 08:21:21;;;;;;;1.88;1.77;;;;;;;21.49;43.66;101454.91;5001372;28;20481;-79
2021/06/25 08:23:47;;;;;;;1.85;1.50;;;;;;;22.93;41.30;101455.34;5014547;28;20033;-80
2021/06/25 08:26:12;;;;;;;2.42;2.33;;;;;;;21.76;42.97;101458.00;5016332;28;20406;-79
2021/06/25 08:28:37;;;;;;;4.07;3.78;;;;;;;21.06;43.35;101452.56;5015270;28;20059;-80
2021/06/25 08:31:02;;;;;;;2.83;2.63;;;;;;;21.48;44.33;101452.34;4998217;28;20091;-79
2021/06/25 08:33:28;;;;;;;7.97;3.67;;;;;;;19.69;48.19;101446.31;5014851;28;20343;-80
2021/06/25 08:35:53;;;;;;;3.85;3.17;;;;;;;19.66;48.93;101448.22;5015261;28;20072;-80
2021/06/25 08:38:18;;;;;;;4.32;4.03;;;;;;;19.47;48.81;101456.06;5016080;28;20018;-80
2021/06/25 08:40:44;;;;;;;4.38;3.65;;;;;;;19.57;49.98;101452.13;5001328;28;20079;-83
2021/06/25 08:43:09;;;;;;;3.55;3.30;;;;;;;18.55;52.26;101458.78;5006932;28;20084;-80
2021/06/25 08:45:35;;;;;;;4.30;2.90;;;;;;;18.85;53.63;101463.81;5006054;28;20022;-80
2021/06/25 08:48:02;;;;;;;2.95;2.78;;;;;;;18.74;53.32;101459.78;5020159;28;20498;-80
2021/06/25 08:50:28;;;;;;;3.58;3.38;;;;;;;19.24;50.71;101461.41;5001445;28;20025;-80
2021/06/25 08:52:54;;;;;;;4.85;4.43;;;;;;;18.15;52.45;101457.59;5000991;28;20032;-79
2021/06/25 08:55:20;;;;;;;4.00;3.70;;;;;;;18.99;49.62;101450.94;5001618;28;20091;-80
2021/06/25 08:57:46;;;;;;;4.88;3.92;;;;;;;18.87;50.40;101456.66;5019839;28;20041;-81
2021/06/25 09:00:13;;;;;;;3.58;3.38;;;;;;;18.30;52.34;101448.25;5017779;28;20042;-80
2021/06/25 09:02:39;;;;;;;4.18;3.80;;;;;;;18.20;52.98;101451.22;5016672;28;20061;-80
2021/06/25 09:05:24;;;;;;;4.75;4.30;;;;;;;17.81;53.63;101449.03;5019321;28;20416;-80
2021/06/25 09:07:50;;;;;;;4.05;3.72;;;;;;;18.42;52.54;101450.44;5000224;28;20336;-79
2021/06/25 09:10:28;;;;;;;5.05;3.70;;;;;;;18.92;51.22;101449.44;5001762;28;20506;-79
2021/06/25 09:13:09;;;;;;;3.35;3.13;;;;;;;18.65;51.70;101444.28;4998739;28;20021;-80
2021/06/25 09:15:36;;;;;;;3.55;3.17;;;;;;;18.49;53.13;101451.94;5003007;28;20050;-79
2021/06/25 09:18:04;;;;;;;4.25;3.88;;;;;;;17.98;51.88;101451.09;5028909;28;20029;-80
2021/06/25 09:20:38;;;;;;;4.18;3.88;;;;;;;18.43;49.99;101449.50;5029377;28;20044;-80
2021/06/25 09:23:05;;;;;;;4.07;3.72;;;;;;;18.70;49.86;101450.25;5025639;28;20081;-80
2021/06/25 09:25:31;;;;;;;4.13;3.83;;;;;;;18.49;49.01;101451.94;5005085;28;20033;-81
2021/06/25 09:27:59;;;;;;;3.58;3.38;;;;;;;18.56;48.39;101447.28;5019729;28;20026;-80
2021/06/25 09:30:26;;;;;;;3.33;3.13;;;;;;;18.69;49.82;101447.66;5003624;28;20084;-81
2021/06/25 09:32:51;;;;;;;4.18;3.88;;;;;;;18.83;51.32;101450.66;5017373;28;20109;-80
2021/06/25 09:35:19;;;;;;;4.43;4.13;;;;;;;19.32;46.26;101447.84;5018966;28;20070;-81
2021/06/25 09:37:50;;;;;;;3.63;3.42;;;;;;;19.53;46.32;101439.94;5018527;28;20026;-81
2021/06/25 09:40:17;;;;;;;3.30;3.10;;;;;;;19.38;44.79;101442.28;5017939;28;20010;-80
2021/06/25 09:43:09;;;;;;;3.83;3.63;;;;;;;19.27;43.67;101439.22;5017417;28;20410;-80
2021/06/25 09:45:34;;;;;;;3.92;3.60;;;;;;;18.52;45.67;101450.97;5019236;28;20026;-80
2021/06/25 09:47:59;;;;;;;4.15;3.78;;;;;;;18.88;45.10;101447.84;5019987;28;20076;-81
2021/06/25 09:50:31;;;;;;;4.22;3.78;;;;;;;19.04;46.39;101437.50;5019202;28;20030;-81
2021/06/25 09:53:04;;;;;;;3.85;3.53;;;;;;;19.21;47.31;101442.13;5037169;28;20052;-81
2021/06/25 09:58:37;;;;;;;3.25;3.05;;;;;;;18.40;49.43;101442.53;5011579;28;20041;-79
2021/06/25 10:01:26;;;;;;;4.03;3.72;;;;;;;18.27;49.00;101450.97;5001413;28;20026;-79
2021/06/25 10:03:58;;;;;;;3.33;3.13;;;;;;;18.48;48.38;101449.34;5002373;28;20098;-80
2021/06/25 10:06:26;;;;;;;3.33;3.13;;;;;;;19.27;48.26;101443.69;5017669;28;20056;-80
2021/06/25 10:08:52;;;;;;;4.22;3.92;;;;;;;19.52;47.14;101443.50;5015983;28;20022;-80
2021/06/25 10:11:19;;;;;;;5.13;4.18;;;;;;;18.78;48.03;101447.31;4998677;28;20396;-79
2021/06/25 10:13:46;;;;;;;4.07;3.80;;;;;;;19.06;49.18;101439.19;5031930;28;20045;-80
2021/06/25 10:16:12;;;;;;;3.95;3.65;;;;;;;19.34;47.98;101438.03;5000668;28;20032;-79
2021/06/25 10:18:43;;;;;;;5.00;3.45;;;;;;;19.46;46.17;101438.47;5018788;28;20022;-79
2021/06/25 10:21:11;;;;;;;3.45;3.15;;;;;;;19.56;45.60;101437.16;5027064;28;20049;-81
2021/06/25 10:23:37;;;;;;;3.25;3.08;;;;;;;19.49;45.42;101441.00;5025885;28;20022;-81
2021/06/25 10:26:07;;;;;;;4.00;3.80;;;;;;;19.79;42.01;101435.31;5025268;28;20043;-80
2021/06/25 10:28:35;;;;;;;7.72;3.80;;;;;;;19.65;44.49;101426.16;5026002;28;20026;-81
2021/06/25 10:31:00;;;;;;;3.95;3.70;;;;;;;19.23;45.05;101437.63;5025779;28;20085;-80
2021/06/25 10:33:25;;;;;;;4.07;3.88;;;;;;;19.33;44.36;101433.66;5020453;28;20084;-79
2021/06/25 10:35:51;;;;;;;4.13;3.53;;;;;;;20.09;43.70;101434.00;5003373;28;20026;-80
2021/06/25 10:38:19;;;;;;;3.90;3.63;;;;;;;20.17;43.67;101436.31;5020174;28;20026;-81
2021/06/25 10:41:14;;;;;;;4.10;3.70;;;;;;;19.93;43.30;101433.81;5001992;28;20018;-80
2021/06/25 10:43:41;;;;;;;3.55;3.25;;;;;;;20.67;42.37;101429.63;5019639;28;20022;-80
2021/06/25 10:46:23;;;;;;;4.65;4.25;;;;;;;20.86;42.49;101423.44;5019681;28;20037;-80
2021/06/25 10:48:52;;;;;;;4.45;4.15;;;;;;;20.69;43.05;101426.91;5020641;28;20033;-80
2021/06/25 10:51:23;;;;;;;6.07;5.63;;;;;;;20.90;40.17;101431.22;5002498;28;20113;-80
2021/06/25 10:54:03;;;;;;;5.28;4.82;;;;;;;20.94;40.79;101421.28;5019551;28;20022;-80
2021/06/25 10:56:28;;;;;;;5.15;4.75;;;;;;;21.76;39.94;101425.22;5020515;28;20034;-81
2021/06/25 10:59:32;;;;;;;5.40;4.47;;;;;;;22.40;40.16;101420.97;5018401;28;20379;-80
2021/06/25 11:02:06;;;;;;;4.80;4.60;;;;;;;21.87;39.67;101422.00;5018984;28;20136;-80
2021/06/25 11:04:43;;;;;;;5.80;5.23;;;;;;;23.05;36.75;101406.69;5013837;28;20033;-80
2021/06/25 11:07:56;;;;;;;3.45;3.25;;;;;;;21.86;39.99;101415.84;5003376;28;20277;-81
2021/06/25 11:10:26;;;;;;;4.75;4.32;;;;;;;21.65;38.27;101415.16;5018780;28;20061;-81
2021/06/25 11:13:10;;;;;;;4.35;3.95;;;;;;;22.90;36.28;101418.25;5016303;28;20412;-81
2021/06/25 11:15:38;;;;;;;4.37;4.10;;;;;;;22.88;36.90;101422.81;5017197;28;20022;-79
2021/06/25 11:18:20;;;;;;;4.13;3.83;;;;;;;22.72;39.45;101425.47;5018038;28;20280;-81
2021/06/25 11:20:56;;;;;;;4.40;4.05;;;;;;;23.24;37.77;101417.19;5020685;28;20022;-81
2021/06/25 11:23:24;;;;;;;4.15;3.95;;;;;;;24.04;36.48;101408.91;5003928;28;20030;-80
2021/06/25 11:26:03;;;;;;;3.75;3.55;;;;;;;23.99;35.41;101408.31;5020055;28;20443;-81
2021/06/25 11:28:33;;;;;;;5.53;5.22;;;;;;;25.80;31.64;101410.81;5017141;28;20083;-80
2021/06/25 11:31:17;;;;;;;5.22;4.88;;;;;;;26.01;31.45;101412.97;5018803;28;20021;-81
2021/06/25 11:33:58;;;;;;;6.05;5.55;;;;;;;24.06;35.56;101406.13;5014678;28;20027;-80
2021/06/25 11:36:44;;;;;;;9.07;4.93;;;;;;;25.38;33.08;101406.63;5010819;28;20053;-81